sensor_id;sensor_type;location;lat;lon;timestamp;pressure;altitude;pressure_sealevel;temperature;humidity
27643;BME280;15053;48.618;10.024;2022-09-16T00:01:35;93738.06;;;13.09;88.23
27643;BME280;15053;48.618;10.024;2022-09-16T00:04:01;93745.59;;;13.10;88.86
27643;BME280;15053;48.618;10.024;2022-09-16T00:06:29;93729.59;;;13.12;88.59
27643;BME280;15053;48.618;10.024;2022-09-16T00:08:57;93731.13;;;13.13;89.25
27643;BME280;15053;48.618;10.024;2022-09-16T00:11:26;93734.50;;;13.13;89.45
27643;BME280;15053;48.618;10.024;2022-09-16T00:13:52;93738.34;;;13.16;89.22
27643;BME280;15053;48.618;10.024;2022-09-16T00:16:22;93726.06;;;13.08;89.67
27643;BME280;15053;48.618;10.024;2022-09-16T00:18:53;93734.16;;;13.23;89.42
27643;BME280;15053;48.618;10.024;2022-09-16T00:21:20;93730.00;;;13.22;89.78
27643;BME280;15053;48.618;10.024;2022-09-16T00:23:46;93739.69;;;13.22;89.97
27643;BME280;15053;48.618;10.024;2022-09-16T00:26:13;93726.16;;;13.20;90.29
27643;BME280;15053;48.618;10.024;2022-09-16T00:28:40;93735.03;;;13.27;90.27
27643;BME280;15053;48.618;10.024;2022-09-16T00:31:06;93739.97;;;13.29;90.34
27643;BME280;15053;48.618;10.024;2022-09-16T00:33:32;93739.34;;;13.32;89.93
27643;BME280;15053;48.618;10.024;2022-09-16T00:36:13;93736.09;;;13.35;90.43
27643;BME280;15053;48.618;10.024;2022-09-16T00:38:41;93732.38;;;13.36;89.71
27643;BME280;15053;48.618;10.024;2022-09-16T00:41:13;93733.94;;;13.37;90.36
27643;BME280;15053;48.618;10.024;2022-09-16T00:43:51;93726.53;;;13.39;90.50
27643;BME280;15053;48.618;10.024;2022-09-16T00:46:43;93720.09;;;13.36;89.69
27643;BME280;15053;48.618;10.024;2022-09-16T00:49:15;93721.94;;;13.36;89.83
27643;BME280;15053;48.618;10.024;2022-09-16T00:51:44;93731.63;;;13.35;90.01
27643;BME280;15053;48.618;10.024;2022-09-16T00:54:13;93721.03;;;13.32;90.06
27643;BME280;15053;48.618;10.024;2022-09-16T00:56:43;93714.53;;;13.38;90.29
27643;BME280;15053;48.618;10.024;2022-09-16T00:59:21;93718.69;;;13.39;89.53
27643;BME280;15053;48.618;10.024;2022-09-16T01:01:50;93712.69;;;13.38;89.79
27643;BME280;15053;48.618;10.024;2022-09-16T01:04:28;93710.38;;;13.37;89.63
27643;BME280;15053;48.618;10.024;2022-09-16T01:06:56;93711.47;;;13.36;90.05
27643;BME280;15053;48.618;10.024;2022-09-16T01:09:24;93706.22;;;13.36;89.67
27643;BME280;15053;48.618;10.024;2022-09-16T01:11:52;93707.34;;;13.35;89.62
27643;BME280;15053;48.618;10.024;2022-09-16T01:14:20;93706.88;;;13.33;89.78
27643;BME280;15053;48.618;10.024;2022-09-16T01:17:13;93702.84;;;13.35;89.50
27643;BME280;15053;48.618;10.024;2022-09-16T01:19:57;93696.88;;;13.35;89.76
27643;BME280;15053;48.618;10.024;2022-09-16T01:23:06;93703.94;;;13.34;89.95
27643;BME280;15053;48.618;10.024;2022-09-16T01:25:57;93703.81;;;13.31;89.54
27643;BME280;15053;48.618;10.024;2022-09-16T01:28:56;93707.38;;;13.26;89.87
27643;BME280;15053;48.618;10.024;2022-09-16T01:31:56;93708.78;;;13.24;89.93
27643;BME280;15053;48.618;10.024;2022-09-16T01:34:49;93706.03;;;13.20;90.15
27643;BME280;15053;48.618;10.024;2022-09-16T01:40:32;93708.94;;;13.19;90.06
27643;BME280;15053;48.618;10.024;2022-09-16T01:45:59;93725.09;;;13.21;89.84
27643;BME280;15053;48.618;10.024;2022-09-16T01:48:36;93724.63;;;13.19;90.13
27643;BME280;15053;48.618;10.024;2022-09-16T01:51:13;93721.25;;;13.18;90.56
27643;BME280;15053;48.618;10.024;2022-09-16T01:53:47;93719.41;;;13.19;90.37
27643;BME280;15053;48.618;10.024;2022-09-16T01:56:25;93725.53;;;13.23;90.61
27643;BME280;15053;48.618;10.024;2022-09-16T02:01:25;93716.78;;;13.19;90.17
27643;BME280;15053;48.618;10.024;2022-09-16T02:03:57;93718.75;;;13.22;90.37
27643;BME280;15053;48.618;10.024;2022-09-16T02:06:27;93713.88;;;13.20;89.75
27643;BME280;15053;48.618;10.024;2022-09-16T02:09:01;93724.63;;;13.19;89.94
27643;BME280;15053;48.618;10.024;2022-09-16T02:11:29;93721.56;;;13.17;90.04
27643;BME280;15053;48.618;10.024;2022-09-16T02:14:02;93721.13;;;13.15;89.71
27643;BME280;15053;48.618;10.024;2022-09-16T02:16:34;93720.19;;;13.11;89.75
27643;BME280;15053;48.618;10.024;2022-09-16T02:19:06;93719.28;;;13.07;89.73
27643;BME280;15053;48.618;10.024;2022-09-16T02:21:36;93712.06;;;13.03;89.76
27643;BME280;15053;48.618;10.024;2022-09-16T02:24:15;93724.69;;;13.01;89.86
27643;BME280;15053;48.618;10.024;2022-09-16T02:26:50;93724.22;;;12.99;89.80
27643;BME280;15053;48.618;10.024;2022-09-16T02:29:22;93709.06;;;12.84;90.04
27643;BME280;15053;48.618;10.024;2022-09-16T02:31:53;93730.06;;;12.96;90.06
27643;BME280;15053;48.618;10.024;2022-09-16T02:34:28;93731.63;;;12.97;90.16
27643;BME280;15053;48.618;10.024;2022-09-16T02:37:02;93720.72;;;12.95;90.14
27643;BME280;15053;48.618;10.024;2022-09-16T02:39:31;93724.41;;;12.94;90.61
27643;BME280;15053;48.618;10.024;2022-09-16T02:42:00;93721.16;;;12.97;91.01
27643;BME280;15053;48.618;10.024;2022-09-16T02:44:27;93719.63;;;12.96;91.05
27643;BME280;15053;48.618;10.024;2022-09-16T02:47:08;93717.47;;;12.98;90.99
27643;BME280;15053;48.618;10.024;2022-09-16T02:49:56;93720.38;;;12.97;90.75
27643;BME280;15053;48.618;10.024;2022-09-16T02:52:39;93713.31;;;12.97;91.01
27643;BME280;15053;48.618;10.024;2022-09-16T02:55:34;93711.16;;;12.99;90.86
27643;BME280;15053;48.618;10.024;2022-09-16T02:58:04;93713.03;;;12.99;91.08
27643;BME280;15053;48.618;10.024;2022-09-16T03:00:36;93708.53;;;12.99;90.88
27643;BME280;15053;48.618;10.024;2022-09-16T03:03:04;93714.25;;;13.01;91.50
27643;BME280;15053;48.618;10.024;2022-09-16T03:05:30;93717.28;;;13.03;91.46
27643;BME280;15053;48.618;10.024;2022-09-16T03:07:57;93710.53;;;13.02;91.53
27643;BME280;15053;48.618;10.024;2022-09-16T03:10:26;93710.06;;;13.00;91.45
27643;BME280;15053;48.618;10.024;2022-09-16T03:15:51;93709.75;;;13.02;91.14
27643;BME280;15053;48.618;10.024;2022-09-16T03:18:46;93694.41;;;13.00;91.43
27643;BME280;15053;48.618;10.024;2022-09-16T03:21:33;93695.16;;;13.01;91.92
27643;BME280;15053;48.618;10.024;2022-09-16T03:24:07;93698.84;;;13.00;91.96
27643;BME280;15053;48.618;10.024;2022-09-16T03:26:44;93697.00;;;13.00;91.64
27643;BME280;15053;48.618;10.024;2022-09-16T03:29:18;93697.78;;;13.01;92.07
27643;BME280;15053;48.618;10.024;2022-09-16T03:31:57;93697.78;;;13.01;92.21
27643;BME280;15053;48.618;10.024;2022-09-16T03:34:29;93692.84;;;12.99;92.22
27643;BME280;15053;48.618;10.024;2022-09-16T03:37:03;93700.25;;;12.97;92.00
27643;BME280;15053;48.618;10.024;2022-09-16T03:39:31;93695.47;;;12.99;91.73
27643;BME280;15053;48.618;10.024;2022-09-16T03:42:02;93698.09;;;12.99;91.85
27643;BME280;15053;48.618;10.024;2022-09-16T03:44:35;93697.19;;;12.95;91.93
27643;BME280;15053;48.618;10.024;2022-09-16T03:47:02;93705.63;;;13.01;92.26
27643;BME280;15053;48.618;10.024;2022-09-16T03:49:29;93695.94;;;13.01;92.65
27643;BME280;15053;48.618;10.024;2022-09-16T03:51:56;93700.06;;;13.02;92.67
27643;BME280;15053;48.618;10.024;2022-09-16T03:54:23;93704.53;;;13.02;92.33
27643;BME280;15053;48.618;10.024;2022-09-16T03:56:49;93709.00;;;13.01;92.87
27643;BME280;15053;48.618;10.024;2022-09-16T03:59:16;93710.53;;;13.02;93.07
27643;BME280;15053;48.618;10.024;2022-09-16T04:01:42;93704.53;;;13.02;92.51
27643;BME280;15053;48.618;10.024;2022-09-16T04:04:09;93708.69;;;13.03;92.56
27643;BME280;15053;48.618;10.024;2022-09-16T04:06:35;93699.00;;;13.03;92.88
27643;BME280;15053;48.618;10.024;2022-09-16T04:09:03;93704.22;;;13.03;93.27
27643;BME280;15053;48.618;10.024;2022-09-16T04:11:30;93704.84;;;13.00;93.25
27643;BME280;15053;48.618;10.024;2022-09-16T04:13:57;93701.78;;;12.98;93.02
27643;BME280;15053;48.618;10.024;2022-09-16T04:16:24;93699.63;;;13.00;93.11
27643;BME280;15053;48.618;10.024;2022-09-16T04:18:51;93697.63;;;12.97;92.99
27643;BME280;15053;48.618;10.024;2022-09-16T04:21:17;93698.84;;;13.00;93.51
27643;BME280;15053;48.618;10.024;2022-09-16T04:23:44;93697.00;;;13.00;93.12
27643;BME280;15053;48.618;10.024;2022-09-16T04:26:10;93703.31;;;12.99;92.82
27643;BME280;15053;48.618;10.024;2022-09-16T04:28:37;93689.78;;;12.97;92.92
27643;BME280;15053;48.618;10.024;2022-09-16T04:31:05;93691.97;;;12.95;93.42
27643;BME280;15053;48.618;10.024;2022-09-16T04:33:34;93687.63;;;12.99;93.37
27643;BME280;15053;48.618;10.024;2022-09-16T04:36:11;93683.50;;;12.98;92.75
27643;BME280;15053;48.618;10.024;2022-09-16T04:38:39;93671.69;;;12.92;92.73
27643;BME280;15053;48.618;10.024;2022-09-16T04:41:16;93670.28;;;12.95;93.03
27643;BME280;15053;48.618;10.024;2022-09-16T04:43:44;93676.72;;;12.97;92.60
27643;BME280;15053;48.618;10.024;2022-09-16T04:46:11;93678.56;;;12.97;92.28
27643;BME280;15053;48.618;10.024;2022-09-16T04:48:38;93678.44;;;12.93;91.91
27643;BME280;15053;48.618;10.024;2022-09-16T04:51:11;93680.78;;;12.86;92.16
27643;BME280;15053;48.618;10.024;2022-09-16T04:53:39;93686.91;;;12.90;92.33
27643;BME280;15053;48.618;10.024;2022-09-16T04:56:11;93682.13;;;12.92;91.86
27643;BME280;15053;48.618;10.024;2022-09-16T04:58:43;93693.34;;;12.93;91.93
27643;BME280;15053;48.618;10.024;2022-09-16T05:01:11;93697.03;;;12.92;92.39
27643;BME280;15053;48.618;10.024;2022-09-16T05:03:39;93702.28;;;12.92;92.16
27643;BME280;15053;48.618;10.024;2022-09-16T05:06:15;93695.19;;;12.92;92.21
27643;BME280;15053;48.618;10.024;2022-09-16T05:08:47;93693.47;;;12.96;92.24
27643;BME280;15053;48.618;10.024;2022-09-16T05:11:24;93689.94;;;13.01;92.31
27643;BME280;15053;48.618;10.024;2022-09-16T05:13:51;93699.91;;;13.08;92.45
27643;BME280;15053;48.618;10.024;2022-09-16T05:16:20;93693.75;;;13.12;92.29
27643;BME280;15053;48.618;10.024;2022-09-16T05:18:48;93691.91;;;13.13;91.97
27643;BME280;15053;48.618;10.024;2022-09-16T05:21:18;93693.13;;;13.15;92.13
27643;BME280;15053;48.618;10.024;2022-09-16T05:23:45;93698.47;;;13.19;91.83
27643;BME280;15053;48.618;10.024;2022-09-16T05:26:21;93699.38;;;13.23;92.13
27643;BME280;15053;48.618;10.024;2022-09-16T05:28:48;93692.44;;;13.27;91.46
27643;BME280;15053;48.618;10.024;2022-09-16T05:31:21;93686.56;;;13.30;91.26
27643;BME280;15053;48.618;10.024;2022-09-16T05:34:03;93682.88;;;13.31;90.94
27643;BME280;15053;48.618;10.024;2022-09-16T05:36:32;93689.66;;;13.32;91.52
27643;BME280;15053;48.618;10.024;2022-09-16T05:38:59;93682.25;;;13.34;91.15
27643;BME280;15053;48.618;10.024;2022-09-16T05:41:47;93682.25;;;13.34;91.25
27643;BME280;15053;48.618;10.024;2022-09-16T05:44:13;93687.78;;;13.32;91.19
27643;BME280;15053;48.618;10.024;2022-09-16T05:46:40;93681.81;;;13.32;90.90
27643;BME280;15053;48.618;10.024;2022-09-16T05:49:07;93685.31;;;13.36;90.75
27643;BME280;15053;48.618;10.024;2022-09-16T05:51:35;93687.91;;;13.36;90.38
27643;BME280;15053;48.618;10.024;2022-09-16T05:54:02;93683.78;;;13.35;90.54
27643;BME280;15053;48.618;10.024;2022-09-16T05:56:29;93691.44;;;13.40;91.07
27643;BME280;15053;48.618;10.024;2022-09-16T05:58:58;93677.28;;;13.41;90.87
27643;BME280;15053;48.618;10.024;2022-09-16T06:01:30;93675.75;;;13.40;90.35
27643;BME280;15053;48.618;10.024;2022-09-16T06:03:59;93672.66;;;13.38;90.92
27643;BME280;15053;48.618;10.024;2022-09-16T06:06:34;93680.22;;;13.39;90.68
27643;BME280;15053;48.618;10.024;2022-09-16T06:09:05;93682.50;;;13.41;91.19
27643;BME280;15053;48.618;10.024;2022-09-16T06:11:36;93674.03;;;13.44;91.36
27643;BME280;15053;48.618;10.024;2022-09-16T06:14:02;93677.06;;;13.46;91.12
27643;BME280;15053;48.618;10.024;2022-09-16T06:16:29;93676.78;;;13.47;90.77
27643;BME280;15053;48.618;10.024;2022-09-16T06:19:04;93681.69;;;13.49;91.03
27643;BME280;15053;48.618;10.024;2022-09-16T06:21:31;93682.78;;;13.48;90.71
27643;BME280;15053;48.618;10.024;2022-09-16T06:23:57;93676.44;;;13.49;90.65
27643;BME280;15053;48.618;10.024;2022-09-16T06:26:25;93668.28;;;13.50;90.87
27643;BME280;15053;48.618;10.024;2022-09-16T06:28:52;93662.72;;;13.52;90.76
27643;BME280;15053;48.618;10.024;2022-09-16T06:31:23;93657.19;;;13.53;90.36
27643;BME280;15053;48.618;10.024;2022-09-16T06:33:50;93660.59;;;13.54;90.86
27643;BME280;15053;48.618;10.024;2022-09-16T06:36:26;93651.06;;;13.49;90.56
27643;BME280;15053;48.618;10.024;2022-09-16T06:38:52;93662.53;;;13.57;90.93
27643;BME280;15053;48.618;10.024;2022-09-16T06:41:20;93653.59;;;13.58;90.43
27643;BME280;15053;48.618;10.024;2022-09-16T06:43:47;93654.53;;;13.62;90.90
27643;BME280;15053;48.618;10.024;2022-09-16T06:46:25;93663.25;;;13.66;90.67
27643;BME280;15053;48.618;10.024;2022-09-16T06:48:54;93664.78;;;13.67;90.09
27643;BME280;15053;48.618;10.024;2022-09-16T06:51:27;93672.00;;;13.70;90.24
27643;BME280;15053;48.618;10.024;2022-09-16T06:53:57;93675.06;;;13.72;89.30
27643;BME280;15053;48.618;10.024;2022-09-16T06:56:24;93678.75;;;13.71;89.58
27643;BME280;15053;48.618;10.024;2022-09-16T06:58:51;93678.31;;;13.69;89.29
27643;BME280;15053;48.618;10.024;2022-09-16T07:01:23;93677.53;;;13.69;88.98
27643;BME280;15053;48.618;10.024;2022-09-16T07:03:51;93680.50;;;13.67;88.83
27643;BME280;15053;48.618;10.024;2022-09-16T07:06:19;93682.66;;;13.65;88.37
27643;BME280;15053;48.618;10.024;2022-09-16T07:08:47;93684.81;;;13.63;87.96
27643;BME280;15053;48.618;10.024;2022-09-16T07:11:18;93685.44;;;13.60;88.08
27643;BME280;15053;48.618;10.024;2022-09-16T07:13:46;93687.81;;;13.53;87.75
27643;BME280;15053;48.618;10.024;2022-09-16T07:16:19;93688.00;;;13.48;87.71
27643;BME280;15053;48.618;10.024;2022-09-16T07:18:46;93693.44;;;13.43;87.78
27643;BME280;15053;48.618;10.024;2022-09-16T07:21:18;93693.59;;;13.38;88.02
27643;BME280;15053;48.618;10.024;2022-09-16T07:23:45;93696.88;;;13.35;87.77
27643;BME280;15053;48.618;10.024;2022-09-16T07:26:14;93706.41;;;13.31;87.56
27643;BME280;15053;48.618;10.024;2022-09-16T07:28:43;93704.88;;;13.30;88.22
27643;BME280;15053;48.618;10.024;2022-09-16T07:31:14;93701.03;;;13.27;87.77
27643;BME280;15053;48.618;10.024;2022-09-16T07:33:43;93704.28;;;13.24;88.07
27643;BME280;15053;48.618;10.024;2022-09-16T07:36:12;93697.53;;;13.23;87.94
27643;BME280;15053;48.618;10.024;2022-09-16T07:38:39;93691.53;;;13.23;87.26
27643;BME280;15053;48.618;10.024;2022-09-16T07:41:15;93694.47;;;13.21;86.61
27643;BME280;15053;48.618;10.024;2022-09-16T07:43:42;93698.94;;;13.21;87.17
27643;BME280;15053;48.618;10.024;2022-09-16T07:46:11;93699.38;;;13.23;86.23
27643;BME280;15053;48.618;10.024;2022-09-16T07:48:38;93704.81;;;13.18;85.95
27643;BME280;15053;48.618;10.024;2022-09-16T07:51:08;93712.34;;;13.11;85.62
27643;BME280;15053;48.618;10.024;2022-09-16T07:53:36;93711.91;;;13.09;85.50
27643;BME280;15053;48.618;10.024;2022-09-16T07:56:07;93707.28;;;13.06;85.70
27643;BME280;15053;48.618;10.024;2022-09-16T07:58:34;93707.28;;;13.06;85.49
27643;BME280;15053;48.618;10.024;2022-09-16T08:01:01;93706.50;;;13.05;85.62
27643;BME280;15053;48.618;10.024;2022-09-16T08:03:34;93709.91;;;13.06;85.42
27643;BME280;15053;48.618;10.024;2022-09-16T08:06:04;93709.44;;;13.03;85.09
27643;BME280;15053;48.618;10.024;2022-09-16T08:08:31;93707.47;;;13.00;85.02
27643;BME280;15053;48.618;10.024;2022-09-16T08:10:59;93710.69;;;12.97;84.95
27643;BME280;15053;48.618;10.024;2022-09-16T08:13:27;93709.94;;;12.97;85.11
27643;BME280;15053;48.618;10.024;2022-09-16T08:15:58;93712.44;;;12.93;85.88
27643;BME280;15053;48.618;10.024;2022-09-16T08:18:24;93717.69;;;12.85;85.25
27643;BME280;15053;48.618;10.024;2022-09-16T08:20:51;93719.22;;;12.77;85.66
27643;BME280;15053;48.618;10.024;2022-09-16T08:23:17;93723.13;;;12.71;85.55
27643;BME280;15053;48.618;10.024;2022-09-16T08:25:44;93720.66;;;12.66;85.77
27643;BME280;15053;48.618;10.024;2022-09-16T08:28:15;93719.75;;;12.62;85.82
27643;BME280;15053;48.618;10.024;2022-09-16T08:30:42;93720.38;;;12.59;85.95
27643;BME280;15053;48.618;10.024;2022-09-16T08:33:09;93736.50;;;12.53;86.25
27643;BME280;15053;48.618;10.024;2022-09-16T08:35:35;93738.53;;;12.47;86.42
27643;BME280;15053;48.618;10.024;2022-09-16T08:38:02;93743.28;;;12.45;86.60
27643;BME280;15053;48.618;10.024;2022-09-16T08:40:33;93735.16;;;12.47;86.92
27643;BME280;15053;48.618;10.024;2022-09-16T08:43:10;93750.84;;;12.38;87.11
27643;BME280;15053;48.618;10.024;2022-09-16T08:45:45;93742.41;;;12.32;87.73
27643;BME280;15053;48.618;10.024;2022-09-16T08:50:56;93737.78;;;12.29;88.11
27643;BME280;15053;48.618;10.024;2022-09-16T08:53:50;93731.19;;;12.32;88.74
27643;BME280;15053;48.618;10.024;2022-09-16T08:56:21;93733.63;;;12.37;88.90
27643;BME280;15053;48.618;10.024;2022-09-16T08:58:58;93733.78;;;12.49;88.86
27643;BME280;15053;48.618;10.024;2022-09-16T09:01:33;93736.50;;;12.53;88.44
27643;BME280;15053;48.618;10.024;2022-09-16T09:04:00;93739.44;;;12.51;88.59
27643;BME280;15053;48.618;10.024;2022-09-16T09:09:46;93740.06;;;12.57;88.62
27643;BME280;15053;48.618;10.024;2022-09-16T09:12:31;93728.22;;;12.59;88.55
27643;BME280;15053;48.618;10.024;2022-09-16T09:18:03;93723.13;;;12.63;88.54
27643;BME280;15053;48.618;10.024;2022-09-16T09:26:21;93738.78;;;12.71;89.15
27643;BME280;15053;48.618;10.024;2022-09-16T09:34:25;93736.19;;;12.71;88.09
27643;BME280;15053;48.618;10.024;2022-09-16T09:37:14;93733.72;;;12.66;88.06
27643;BME280;15053;48.618;10.024;2022-09-16T09:40:08;93727.56;;;12.71;89.29
27643;BME280;15053;48.618;10.024;2022-09-16T09:45:30;93731.81;;;12.84;88.63
27643;BME280;15053;48.618;10.024;2022-09-16T09:48:02;93725.53;;;12.85;88.66
27643;BME280;15053;48.618;10.024;2022-09-16T09:50:48;93718.91;;;12.87;88.90
27643;BME280;15053;48.618;10.024;2022-09-16T09:53:31;93709.75;;;13.02;89.17
27643;BME280;15053;48.618;10.024;2022-09-16T09:56:29;93709.13;;;13.14;88.29
27643;BME280;15053;48.618;10.024;2022-09-16T09:59:18;93722.16;;;13.22;88.07
27643;BME280;15053;48.618;10.024;2022-09-16T10:01:52;93721.19;;;13.27;88.09
27643;BME280;15053;48.618;10.024;2022-09-16T10:04:19;93723.94;;;13.30;87.51
27643;BME280;15053;48.618;10.024;2022-09-16T10:06:47;93721.16;;;13.35;87.04
27643;BME280;15053;48.618;10.024;2022-09-16T10:09:15;93723.59;;;13.40;86.72
27643;BME280;15053;48.618;10.024;2022-09-16T10:11:51;93719.75;;;13.38;87.13
27643;BME280;15053;48.618;10.024;2022-09-16T10:14:23;93724.97;;;13.38;86.46
27643;BME280;15053;48.618;10.024;2022-09-16T10:16:51;93723.03;;;13.35;86.88
27643;BME280;15053;48.618;10.024;2022-09-16T10:19:22;93724.09;;;13.34;86.54
27643;BME280;15053;48.618;10.024;2022-09-16T10:21:52;93721.78;;;13.32;86.76
27643;BME280;15053;48.618;10.024;2022-09-16T10:27:02;93706.41;;;13.31;86.47
27643;BME280;15053;48.618;10.024;2022-09-16T10:29:42;93700.38;;;13.39;86.30
27643;BME280;15053;48.618;10.024;2022-09-16T10:32:14;93710.00;;;13.47;85.94
27643;BME280;15053;48.618;10.024;2022-09-16T10:34:43;93709.72;;;13.48;85.56
27643;BME280;15053;48.618;10.024;2022-09-16T10:39:55;93709.63;;;13.57;85.38
27643;BME280;15053;48.618;10.024;2022-09-16T10:42:25;93716.84;;;13.60;85.14
27643;BME280;15053;48.618;10.024;2022-09-16T10:45:09;93714.81;;;13.66;83.63
27643;BME280;15053;48.618;10.024;2022-09-16T10:47:39;93706.75;;;13.71;83.09
27643;BME280;15053;48.618;10.024;2022-09-16T10:50:06;93712.28;;;13.78;82.78
27643;BME280;15053;48.618;10.024;2022-09-16T10:52:42;93716.88;;;13.81;82.99
27643;BME280;15053;48.618;10.024;2022-09-16T10:57:45;93722.81;;;13.90;82.56
27643;BME280;15053;48.618;10.024;2022-09-16T11:00:14;93718.03;;;13.92;81.98
27643;BME280;15053;48.618;10.024;2022-09-16T11:06:25;93717.44;;;13.86;82.26
27643;BME280;15053;48.618;10.024;2022-09-16T11:14:59;93718.38;;;13.82;82.05
27643;BME280;15053;48.618;10.024;2022-09-16T11:25:56;93734.41;;;13.59;80.50
27643;BME280;15053;48.618;10.024;2022-09-16T11:37:19;93738.59;;;13.52;79.23
27643;BME280;15053;48.618;10.024;2022-09-16T11:42:34;93735.88;;;13.48;78.91
27643;BME280;15053;48.618;10.024;2022-09-16T11:51:10;93740.22;;;13.65;78.57
27643;BME280;15053;48.618;10.024;2022-09-16T11:56:18;93742.38;;;13.63;78.55
27643;BME280;15053;48.618;10.024;2022-09-16T11:58:50;93729.34;;;13.54;78.46
27643;BME280;15053;48.618;10.024;2022-09-16T12:01:31;93728.72;;;13.57;77.53
27643;BME280;15053;48.618;10.024;2022-09-16T12:04:16;93729.75;;;13.65;77.77
27643;BME280;15053;48.618;10.024;2022-09-16T12:06:55;93732.63;;;13.72;77.71
27643;BME280;15053;48.618;10.024;2022-09-16T12:09:30;93726.72;;;13.84;78.51
27643;BME280;15053;48.618;10.024;2022-09-16T12:12:09;93721.84;;;13.94;78.77
27643;BME280;15053;48.618;10.024;2022-09-16T12:14:41;93737.56;;;13.94;78.63
27643;BME280;15053;48.618;10.024;2022-09-16T12:17:19;93731.56;;;13.94;78.89
27643;BME280;15053;48.618;10.024;2022-09-16T12:19:53;93730.97;;;13.88;78.21
27643;BME280;15053;48.618;10.024;2022-09-16T12:25:07;93737.63;;;13.65;77.95
27643;BME280;15053;48.618;10.024;2022-09-16T12:27:50;93732.75;;;13.55;78.20
27643;BME280;15053;48.618;10.024;2022-09-16T12:30:22;93734.00;;;13.49;78.34
27643;BME280;15053;48.618;10.024;2022-09-16T12:35:42;93732.53;;;13.60;79.58
27643;BME280;15053;48.618;10.024;2022-09-16T12:38:18;93726.69;;;13.63;79.85
27643;BME280;15053;48.618;10.024;2022-09-16T12:51:37;93717.47;;;14.40;75.48
27643;BME280;15053;48.618;10.024;2022-09-16T13:00:04;93726.06;;;14.07;74.39
27643;BME280;15053;48.618;10.024;2022-09-16T13:02:38;93726.56;;;14.01;74.88
27643;BME280;15053;48.618;10.024;2022-09-16T13:05:29;93729.50;;;13.99;74.67
27643;BME280;15053;48.618;10.024;2022-09-16T13:08:04;93737.22;;;13.96;74.92
27643;BME280;15053;48.618;10.024;2022-09-16T13:10:37;93717.88;;;13.88;74.60
27643;BME280;15053;48.618;10.024;2022-09-16T13:13:40;93724.19;;;13.87;75.80
27643;BME280;15053;48.618;10.024;2022-09-16T13:16:08;93708.06;;;14.06;74.36
27643;BME280;15053;48.618;10.024;2022-09-16T13:18:41;93703.75;;;14.55;73.74
27643;BME280;15053;48.618;10.024;2022-09-16T13:21:20;93706.91;;;15.29;71.23
27643;BME280;15053;48.618;10.024;2022-09-16T13:23:55;93693.72;;;15.66;67.18
27643;BME280;15053;48.618;10.024;2022-09-16T13:26:24;93705.41;;;15.92;66.94
27643;BME280;15053;48.618;10.024;2022-09-16T13:28:50;93718.28;;;15.98;66.53
27643;BME280;15053;48.618;10.024;2022-09-16T13:31:19;93718.84;;;15.91;65.10
27643;BME280;15053;48.618;10.024;2022-09-16T13:38:51;93707.75;;;15.70;66.58
27643;BME280;15053;48.618;10.024;2022-09-16T13:41:39;93717.53;;;16.25;65.60
27643;BME280;15053;48.618;10.024;2022-09-16T13:49:53;93715.72;;;17.62;60.95
27643;BME280;15053;48.618;10.024;2022-09-16T13:52:27;93716.13;;;17.64;59.71
27643;BME280;15053;48.618;10.024;2022-09-16T13:54:55;93706.75;;;17.67;58.16
27643;BME280;15053;48.618;10.024;2022-09-16T14:03:23;93697.34;;;17.00;55.68
27643;BME280;15053;48.618;10.024;2022-09-16T14:09:07;93696.78;;;17.41;57.29
27643;BME280;15053;48.618;10.024;2022-09-16T14:12:00;93694.66;;;17.47;56.77
27643;BME280;15053;48.618;10.024;2022-09-16T14:14:31;93700.25;;;17.45;56.97
27643;BME280;15053;48.618;10.024;2022-09-16T14:17:24;93690.09;;;17.13;57.56
27643;BME280;15053;48.618;10.024;2022-09-16T14:19:57;93698.84;;;17.17;57.24
27643;BME280;15053;48.618;10.024;2022-09-16T14:22:24;93692.28;;;17.57;54.78
27643;BME280;15053;48.618;10.024;2022-09-16T14:24:53;93677.03;;;17.86;53.83
27643;BME280;15053;48.618;10.024;2022-09-16T14:27:33;93682.28;;;18.20;52.68
27643;BME280;15053;48.618;10.024;2022-09-16T14:30:08;93689.13;;;18.25;52.10
27643;BME280;15053;48.618;10.024;2022-09-16T14:32:39;93692.09;;;18.43;51.58
27643;BME280;15053;48.618;10.024;2022-09-16T14:35:14;93700.75;;;18.62;50.84
27643;BME280;15053;48.618;10.024;2022-09-16T14:37:44;93695.38;;;18.55;49.40
27643;BME280;15053;48.618;10.024;2022-09-16T14:40:14;93693.41;;;18.33;48.85
27643;BME280;15053;48.618;10.024;2022-09-16T14:42:50;93704.66;;;18.30;49.34
27643;BME280;15053;48.618;10.024;2022-09-16T14:45:18;93700.50;;;18.29;49.66
27643;BME280;15053;48.618;10.024;2022-09-16T14:47:46;93701.69;;;18.32;50.67
27643;BME280;15053;48.618;10.024;2022-09-16T14:50:32;93710.91;;;18.41;50.30
27643;BME280;15053;48.618;10.024;2022-09-16T14:53:04;93699.16;;;18.39;49.40
27643;BME280;15053;48.618;10.024;2022-09-16T14:55:33;93699.09;;;18.35;49.44
27643;BME280;15053;48.618;10.024;2022-09-16T14:58:02;93706.31;;;18.38;49.01
27643;BME280;15053;48.618;10.024;2022-09-16T15:00:38;93705.50;;;18.34;48.17
27643;BME280;15053;48.618;10.024;2022-09-16T15:03:15;93700.50;;;18.29;47.05
27643;BME280;15053;48.618;10.024;2022-09-16T15:05:45;93688.06;;;18.29;47.51
27643;BME280;15053;48.618;10.024;2022-09-16T15:08:27;93694.66;;;18.39;47.47
27643;BME280;15053;48.618;10.024;2022-09-16T15:10:57;93688.97;;;18.37;48.16
27643;BME280;15053;48.618;10.024;2022-09-16T15:13:27;93692.03;;;18.39;47.89
27643;BME280;15053;48.618;10.024;2022-09-16T15:16:02;93686.28;;;18.53;48.36
27643;BME280;15053;48.618;10.024;2022-09-16T15:18:31;93678.63;;;18.90;48.00
27643;BME280;15053;48.618;10.024;2022-09-16T15:21:26;93682.66;;;19.06;48.04